sensor_id;sensor_type;location;lat;lon;timestamp;P1;durP1;ratioP1;P2;durP2;ratioP2
25045;SDS011;13044;49.304;12.840;2024-03-23T00:54:10;13.80;;;10.65;;
25045;SDS011;13044;49.304;12.840;2024-03-23T00:56:36;14.18;;;9.10;;
25045;SDS011;13044;49.304;12.840;2024-03-23T00:59:02;13.40;;;8.63;;
25045;SDS011;13044;49.304;12.840;2024-03-23T01:01:28;11.43;;;9.15;;
25045;SDS011;13044;49.304;12.840;2024-03-23T01:03:53;11.50;;;9.05;;
25045;SDS011;13044;49.304;12.840;2024-03-23T01:06:19;14.18;;;9.00;;
25045;SDS011;13044;49.304;12.840;2024-03-23T01:08:45;12.82;;;8.85;;
25045;SDS011;13044;49.304;12.840;2024-03-23T01:11:11;12.23;;;9.18;;
25045;SDS011;13044;49.304;12.840;2024-03-23T01:13:37;13.07;;;9.68;;
25045;SDS011;13044;49.304;12.840;2024-03-23T01:16:03;11.52;;;8.60;;
25045;SDS011;13044;49.304;12.840;2024-03-23T01:18:29;11.45;;;8.80;;
25045;SDS011;13044;49.304;12.840;2024-03-23T01:20:55;13.23;;;9.30;;
25045;SDS011;13044;49.304;12.840;2024-03-23T01:23:21;12.10;;;8.45;;
25045;SDS011;13044;49.304;12.840;2024-03-23T01:25:54;12.52;;;8.88;;
25045;SDS011;13044;49.304;12.840;2024-03-23T01:28:20;11.27;;;9.10;;
25045;SDS011;13044;49.304;12.840;2024-03-23T01:30:47;12.90;;;9.18;;
25045;SDS011;13044;49.304;12.840;2024-03-23T01:33:13;15.60;;;9.25;;
25045;SDS011;13044;49.304;12.840;2024-03-23T01:35:39;12.02;;;9.00;;
25045;SDS011;13044;49.304;12.840;2024-03-23T01:38:06;13.10;;;8.95;;
25045;SDS011;13044;49.304;12.840;2024-03-23T01:40:31;12.45;;;8.90;;
25045;SDS011;13044;49.304;12.840;2024-03-23T01:42:58;11.43;;;8.65;;
25045;SDS011;13044;49.304;12.840;2024-03-23T01:45:29;12.75;;;8.85;;
25045;SDS011;13044;49.304;12.840;2024-03-23T01:47:56;14.20;;;9.90;;
25045;SDS011;13044;49.304;12.840;2024-03-23T01:50:22;12.15;;;9.10;;
25045;SDS011;13044;49.304;12.840;2024-03-23T01:52:49;11.63;;;8.75;;
25045;SDS011;13044;49.304;12.840;2024-03-23T01:55:16;12.90;;;9.63;;
25045;SDS011;13044;49.304;12.840;2024-03-23T01:57:42;12.50;;;9.20;;
25045;SDS011;13044;49.304;12.840;2024-03-23T02:00:08;13.55;;;9.70;;
25045;SDS011;13044;49.304;12.840;2024-03-23T02:02:44;13.25;;;10.45;;
25045;SDS011;13044;49.304;12.840;2024-03-23T02:05:14;13.18;;;10.38;;
25045;SDS011;13044;49.304;12.840;2024-03-23T02:07:40;12.57;;;9.63;;
25045;SDS011;13044;49.304;12.840;2024-03-23T02:10:08;16.27;;;10.07;;
25045;SDS011;13044;49.304;12.840;2024-03-23T02:12:36;12.73;;;9.23;;
25045;SDS011;13044;49.304;12.840;2024-03-23T02:15:03;14.43;;;10.02;;
25045;SDS011;13044;49.304;12.840;2024-03-23T02:17:30;16.05;;;9.40;;
25045;SDS011;13044;49.304;12.840;2024-03-23T02:19:58;13.52;;;10.48;;
25045;SDS011;13044;49.304;12.840;2024-03-23T02:22:25;13.95;;;10.55;;
25045;SDS011;13044;49.304;12.840;2024-03-23T02:25:03;12.60;;;9.82;;
25045;SDS011;13044;49.304;12.840;2024-03-23T02:27:31;14.65;;;10.63;;
25045;SDS011;13044;49.304;12.840;2024-03-23T02:29:58;14.88;;;10.38;;
25045;SDS011;13044;49.304;12.840;2024-03-23T02:32:24;15.27;;;10.00;;
25045;SDS011;13044;49.304;12.840;2024-03-23T02:34:50;12.48;;;10.25;;
25045;SDS011;13044;49.304;12.840;2024-03-23T02:37:15;11.52;;;9.73;;
25045;SDS011;13044;49.304;12.840;2024-03-23T02:39:41;14.57;;;10.25;;
25045;SDS011;13044;49.304;12.840;2024-03-23T02:42:07;13.95;;;10.32;;
25045;SDS011;13044;49.304;12.840;2024-03-23T02:44:33;14.52;;;10.13;;
25045;SDS011;13044;49.304;12.840;2024-03-23T02:46:59;16.50;;;9.45;;
25045;SDS011;13044;49.304;12.840;2024-03-23T02:49:25;14.90;;;10.50;;
25045;SDS011;13044;49.304;12.840;2024-03-23T02:51:52;16.67;;;10.30;;
25045;SDS011;13044;49.304;12.840;2024-03-23T02:54:18;13.93;;;10.00;;
25045;SDS011;13044;49.304;12.840;2024-03-23T02:56:44;12.68;;;9.50;;
25045;SDS011;13044;49.304;12.840;2024-03-23T02:59:10;14.68;;;10.13;;
25045;SDS011;13044;49.304;12.840;2024-03-23T03:01:36;12.75;;;9.85;;
25045;SDS011;13044;49.304;12.840;2024-03-23T03:04:01;15.73;;;10.02;;
25045;SDS011;13044;49.304;12.840;2024-03-23T03:06:30;13.60;;;9.73;;
25045;SDS011;13044;49.304;12.840;2024-03-23T03:08:56;13.23;;;9.65;;
25045;SDS011;13044;49.304;12.840;2024-03-23T03:11:23;13.25;;;10.23;;
25045;SDS011;13044;49.304;12.840;2024-03-23T03:13:48;13.48;;;9.60;;
25045;SDS011;13044;49.304;12.840;2024-03-23T03:16:14;12.52;;;9.35;;
25045;SDS011;13044;49.304;12.840;2024-03-23T03:18:40;13.82;;;10.30;;
25045;SDS011;13044;49.304;12.840;2024-03-23T03:21:06;12.20;;;9.15;;
25045;SDS011;13044;49.304;12.840;2024-03-23T03:23:36;13.77;;;9.48;;
25045;SDS011;13044;49.304;12.840;2024-03-23T03:26:03;12.02;;;9.02;;
25045;SDS011;13044;49.304;12.840;2024-03-23T03:28:32;11.82;;;9.82;;
25045;SDS011;13044;49.304;12.840;2024-03-23T03:31:00;12.77;;;9.85;;
25045;SDS011;13044;49.304;12.840;2024-03-23T03:33:26;15.30;;;10.43;;
25045;SDS011;13044;49.304;12.840;2024-03-23T03:35:53;13.18;;;9.90;;
25045;SDS011;13044;49.304;12.840;2024-03-23T03:38:19;13.35;;;9.88;;
25045;SDS011;13044;49.304;12.840;2024-03-23T03:40:46;13.93;;;9.15;;
25045;SDS011;13044;49.304;12.840;2024-03-23T03:43:12;15.20;;;10.18;;
25045;SDS011;13044;49.304;12.840;2024-03-23T03:45:38;14.25;;;10.10;;
25045;SDS011;13044;49.304;12.840;2024-03-23T03:48:04;16.20;;;10.50;;
25045;SDS011;13044;49.304;12.840;2024-03-23T03:50:30;14.15;;;9.65;;
25045;SDS011;13044;49.304;12.840;2024-03-23T03:52:56;13.52;;;9.82;;
25045;SDS011;13044;49.304;12.840;2024-03-23T03:55:22;11.82;;;9.63;;
25045;SDS011;13044;49.304;12.840;2024-03-23T03:57:48;12.98;;;9.70;;
25045;SDS011;13044;49.304;12.840;2024-03-23T04:00:14;12.57;;;9.50;;
25045;SDS011;13044;49.304;12.840;2024-03-23T04:02:41;11.30;;;8.65;;
25045;SDS011;13044;49.304;12.840;2024-03-23T04:05:07;12.27;;;9.35;;
25045;SDS011;13044;49.304;12.840;2024-03-23T04:07:33;12.00;;;9.25;;
25045;SDS011;13044;49.304;12.840;2024-03-23T04:09:59;13.00;;;9.50;;
25045;SDS011;13044;49.304;12.840;2024-03-23T04:12:25;12.32;;;9.13;;
25045;SDS011;13044;49.304;12.840;2024-03-23T04:14:51;15.05;;;10.07;;
25045;SDS011;13044;49.304;12.840;2024-03-23T04:17:17;13.25;;;9.20;;
25045;SDS011;13044;49.304;12.840;2024-03-23T04:19:44;13.88;;;9.70;;
25045;SDS011;13044;49.304;12.840;2024-03-23T04:22:10;12.32;;;9.55;;
25045;SDS011;13044;49.304;12.840;2024-03-23T04:24:36;13.23;;;10.25;;
25045;SDS011;13044;49.304;12.840;2024-03-23T04:27:02;13.60;;;9.45;;
25045;SDS011;13044;49.304;12.840;2024-03-23T04:29:28;12.18;;;9.55;;
25045;SDS011;13044;49.304;12.840;2024-03-23T04:31:54;12.60;;;9.80;;
25045;SDS011;13044;49.304;12.840;2024-03-23T04:34:21;14.25;;;10.75;;
25045;SDS011;13044;49.304;12.840;2024-03-23T04:36:48;13.73;;;10.35;;
25045;SDS011;13044;49.304;12.840;2024-03-23T04:39:14;12.02;;;9.68;;
25045;SDS011;13044;49.304;12.840;2024-03-23T04:41:40;17.38;;;11.13;;
25045;SDS011;13044;49.304;12.840;2024-03-23T04:44:06;12.70;;;9.73;;
25045;SDS011;13044;49.304;12.840;2024-03-23T04:46:32;13.82;;;10.55;;
25045;SDS011;13044;49.304;12.840;2024-03-23T04:48:58;14.10;;;10.20;;
25045;SDS011;13044;49.304;12.840;2024-03-23T04:51:24;13.35;;;10.00;;
25045;SDS011;13044;49.304;12.840;2024-03-23T04:53:50;14.73;;;9.27;;
25045;SDS011;13044;49.304;12.840;2024-03-23T04:56:16;12.32;;;10.02;;
25045;SDS011;13044;49.304;12.840;2024-03-23T04:58:43;14.70;;;10.23;;
25045;SDS011;13044;49.304;12.840;2024-03-23T05:01:09;14.57;;;10.65;;
25045;SDS011;13044;49.304;12.840;2024-03-23T05:03:36;14.88;;;11.00;;
25045;SDS011;13044;49.304;12.840;2024-03-23T05:06:02;13.02;;;10.13;;
25045;SDS011;13044;49.304;12.840;2024-03-23T05:08:28;14.75;;;9.80;;
25045;SDS011;13044;49.304;12.840;2024-03-23T05:10:55;13.60;;;9.60;;
25045;SDS011;13044;49.304;12.840;2024-03-23T05:13:21;12.48;;;9.40;;
25045;SDS011;13044;49.304;12.840;2024-03-23T05:15:51;13.50;;;10.07;;
25045;SDS011;13044;49.304;12.840;2024-03-23T05:18:19;14.00;;;10.50;;
25045;SDS011;13044;49.304;12.840;2024-03-23T05:20:45;14.20;;;10.40;;
25045;SDS011;13044;49.304;12.840;2024-03-23T05:23:11;14.73;;;9.93;;
25045;SDS011;13044;49.304;12.840;2024-03-23T05:25:37;14.60;;;10.20;;
25045;SDS011;13044;49.304;12.840;2024-03-23T05:28:03;18.45;;;10.77;;
25045;SDS011;13044;49.304;12.840;2024-03-23T05:30:29;14.32;;;9.55;;
25045;SDS011;13044;49.304;12.840;2024-03-23T05:32:55;15.48;;;10.13;;
25045;SDS011;13044;49.304;12.840;2024-03-23T05:35:21;14.98;;;10.48;;
25045;SDS011;13044;49.304;12.840;2024-03-23T05:37:47;16.08;;;10.98;;
25045;SDS011;13044;49.304;12.840;2024-03-23T05:40:13;16.52;;;10.27;;
25045;SDS011;13044;49.304;12.840;2024-03-23T05:42:40;13.80;;;10.27;;
25045;SDS011;13044;49.304;12.840;2024-03-23T05:45:07;12.27;;;9.75;;
25045;SDS011;13044;49.304;12.840;2024-03-23T05:47:33;15.88;;;11.35;;
25045;SDS011;13044;49.304;12.840;2024-03-23T05:49:59;16.20;;;10.68;;
25045;SDS011;13044;49.304;12.840;2024-03-23T05:52:26;12.35;;;9.63;;
25045;SDS011;13044;49.304;12.840;2024-03-23T05:54:52;15.50;;;10.82;;
25045;SDS011;13044;49.304;12.840;2024-03-23T05:57:18;13.02;;;9.85;;
25045;SDS011;13044;49.304;12.840;2024-03-23T05:59:44;15.05;;;10.35;;
25045;SDS011;13044;49.304;12.840;2024-03-23T06:02:10;13.40;;;10.27;;
25045;SDS011;13044;49.304;12.840;2024-03-23T06:04:36;17.05;;;11.18;;
25045;SDS011;13044;49.304;12.840;2024-03-23T06:07:02;18.52;;;11.48;;
25045;SDS011;13044;49.304;12.840;2024-03-23T06:09:31;15.82;;;10.90;;
25045;SDS011;13044;49.304;12.840;2024-03-23T06:11:57;14.27;;;10.88;;
25045;SDS011;13044;49.304;12.840;2024-03-23T06:14:23;16.10;;;11.90;;
25045;SDS011;13044;49.304;12.840;2024-03-23T06:16:49;15.63;;;11.20;;
25045;SDS011;13044;49.304;12.840;2024-03-23T06:19:15;14.82;;;11.40;;
25045;SDS011;13044;49.304;12.840;2024-03-23T06:21:44;13.20;;;10.32;;
25045;SDS011;13044;49.304;12.840;2024-03-23T06:24:11;13.27;;;10.05;;
25045;SDS011;13044;49.304;12.840;2024-03-23T06:26:38;15.30;;;9.90;;
25045;SDS011;13044;49.304;12.840;2024-03-23T06:29:04;12.82;;;9.85;;
25045;SDS011;13044;49.304;12.840;2024-03-23T06:31:30;11.70;;;9.27;;
25045;SDS011;13044;49.304;12.840;2024-03-23T06:33:57;13.55;;;10.25;;
25045;SDS011;13044;49.304;12.840;2024-03-23T06:36:23;12.57;;;9.20;;
25045;SDS011;13044;49.304;12.840;2024-03-23T06:38:49;13.70;;;11.45;;
25045;SDS011;13044;49.304;12.840;2024-03-23T06:41:15;12.73;;;9.48;;
25045;SDS011;13044;49.304;12.840;2024-03-23T06:43:41;13.13;;;10.02;;
25045;SDS011;13044;49.304;12.840;2024-03-23T06:46:07;12.45;;;9.90;;
25045;SDS011;13044;49.304;12.840;2024-03-23T06:48:33;14.13;;;9.40;;
25045;SDS011;13044;49.304;12.840;2024-03-23T06:50:58;12.98;;;8.88;;
25045;SDS011;13044;49.304;12.840;2024-03-23T06:53:24;10.07;;;7.85;;
25045;SDS011;13044;49.304;12.840;2024-03-23T06:55:54;9.45;;;8.43;;
25045;SDS011;13044;49.304;12.840;2024-03-23T06:58:24;9.05;;;7.28;;
25045;SDS011;13044;49.304;12.840;2024-03-23T07:00:50;10.82;;;7.78;;
25045;SDS011;13044;49.304;12.840;2024-03-23T07:03:16;10.15;;;7.15;;
25045;SDS011;13044;49.304;12.840;2024-03-23T07:05:42;10.88;;;6.10;;
25045;SDS011;13044;49.304;12.840;2024-03-23T07:08:09;7.95;;;5.88;;
25045;SDS011;13044;49.304;12.840;2024-03-23T07:10:34;8.35;;;5.57;;
25045;SDS011;13044;49.304;12.840;2024-03-23T07:13:02;6.70;;;5.70;;
25045;SDS011;13044;49.304;12.840;2024-03-23T07:15:29;7.32;;;4.78;;
25045;SDS011;13044;49.304;12.840;2024-03-23T07:17:54;8.18;;;5.38;;
25045;SDS011;13044;49.304;12.840;2024-03-23T07:20:22;8.77;;;5.03;;
25045;SDS011;13044;49.304;12.840;2024-03-23T07:22:48;7.25;;;4.90;;
25045;SDS011;13044;49.304;12.840;2024-03-23T07:25:14;7.68;;;4.60;;
25045;SDS011;13044;49.304;12.840;2024-03-23T07:27:40;6.00;;;4.13;;
25045;SDS011;13044;49.304;12.840;2024-03-23T07:30:06;6.45;;;4.00;;
25045;SDS011;13044;49.304;12.840;2024-03-23T07:32:34;5.78;;;4.35;;
25045;SDS011;13044;49.304;12.840;2024-03-23T07:35:01;6.93;;;4.30;;
25045;SDS011;13044;49.304;12.840;2024-03-23T07:37:27;7.43;;;3.80;;
25045;SDS011;13044;49.304;12.840;2024-03-23T07:39:54;5.05;;;3.88;;
25045;SDS011;13044;49.304;12.840;2024-03-23T07:42:20;5.70;;;3.70;;
25045;SDS011;13044;49.304;12.840;2024-03-23T07:44:46;8.85;;;4.70;;
25045;SDS011;13044;49.304;12.840;2024-03-23T07:47:12;6.32;;;3.83;;
25045;SDS011;13044;49.304;12.840;2024-03-23T07:49:37;5.63;;;3.72;;
25045;SDS011;13044;49.304;12.840;2024-03-23T07:52:05;5.43;;;3.90;;
25045;SDS011;13044;49.304;12.840;2024-03-23T07:54:33;4.25;;;3.83;;
25045;SDS011;13044;49.304;12.840;2024-03-23T07:56:59;9.70;;;3.60;;
25045;SDS011;13044;49.304;12.840;2024-03-23T07:59:25;5.78;;;3.65;;
25045;SDS011;13044;49.304;12.840;2024-03-23T08:01:51;8.55;;;4.05;;
25045;SDS011;13044;49.304;12.840;2024-03-23T08:04:17;5.35;;;3.80;;
25045;SDS011;13044;49.304;12.840;2024-03-23T08:06:43;5.78;;;4.03;;
25045;SDS011;13044;49.304;12.840;2024-03-23T08:09:09;5.80;;;3.80;;
25045;SDS011;13044;49.304;12.840;2024-03-23T08:11:34;24.67;;;15.35;;
25045;SDS011;13044;49.304;12.840;2024-03-23T08:14:04;6.47;;;4.90;;
25045;SDS011;13044;49.304;12.840;2024-03-23T08:16:31;4.35;;;3.40;;
25045;SDS011;13044;49.304;12.840;2024-03-23T08:18:57;6.15;;;3.83;;
25045;SDS011;13044;49.304;12.840;2024-03-23T08:21:22;5.22;;;3.70;;
25045;SDS011;13044;49.304;12.840;2024-03-23T08:23:50;5.95;;;3.80;;
25045;SDS011;13044;49.304;12.840;2024-03-23T08:26:16;5.00;;;3.90;;
25045;SDS011;13044;49.304;12.840;2024-03-23T08:28:44;5.88;;;4.65;;
25045;SDS011;13044;49.304;12.840;2024-03-23T08:31:11;4.88;;;3.67;;
25045;SDS011;13044;49.304;12.840;2024-03-23T08:33:39;5.78;;;4.15;;
25045;SDS011;13044;49.304;12.840;2024-03-23T08:36:08;5.28;;;4.63;;
25045;SDS011;13044;49.304;12.840;2024-03-23T08:38:37;5.75;;;4.50;;
25045;SDS011;13044;49.304;12.840;2024-03-23T08:41:04;5.15;;;4.30;;
25045;SDS011;13044;49.304;12.840;2024-03-23T08:43:36;6.03;;;4.43;;
25045;SDS011;13044;49.304;12.840;2024-03-23T08:46:07;5.38;;;4.68;;
25045;SDS011;13044;49.304;12.840;2024-03-23T08:48:37;5.35;;;4.40;;
25045;SDS011;13044;49.304;12.840;2024-03-23T08:51:06;5.80;;;4.82;;
25045;SDS011;13044;49.304;12.840;2024-03-23T08:53:34;7.72;;;5.15;;
25045;SDS011;13044;49.304;12.840;2024-03-23T08:56:01;6.63;;;5.38;;
25045;SDS011;13044;49.304;12.840;2024-03-23T08:58:29;6.05;;;5.25;;
25045;SDS011;13044;49.304;12.840;2024-03-23T09:00:57;7.55;;;5.75;;
25045;SDS011;13044;49.304;12.840;2024-03-23T09:03:35;6.95;;;4.72;;
25045;SDS011;13044;49.304;12.840;2024-03-23T09:06:06;7.97;;;4.95;;
25045;SDS011;13044;49.304;12.840;2024-03-23T09:08:37;6.80;;;4.82;;
25045;SDS011;13044;49.304;12.840;2024-03-23T09:11:12;8.02;;;5.18;;
25045;SDS011;13044;49.304;12.840;2024-03-23T09:16:07;5.13;;;4.25;;
25045;SDS011;13044;49.304;12.840;2024-03-23T09:18:34;7.50;;;4.93;;
25045;SDS011;13044;49.304;12.840;2024-03-23T09:21:02;6.00;;;4.85;;
25045;SDS011;13044;49.304;12.840;2024-03-23T09:23:29;6.45;;;4.18;;
25045;SDS011;13044;49.304;12.840;2024-03-23T09:25:55;6.32;;;4.07;;
25045;SDS011;13044;49.304;12.840;2024-03-23T09:28:21;6.07;;;3.83;;
25045;SDS011;13044;49.304;12.840;2024-03-23T09:30:47;6.75;;;4.30;;
25045;SDS011;13044;49.304;12.840;2024-03-23T09:33:13;6.22;;;5.10;;
25045;SDS011;13044;49.304;12.840;2024-03-23T09:35:39;6.65;;;4.95;;
25045;SDS011;13044;49.304;12.840;2024-03-23T09:38:07;8.20;;;4.72;;
25045;SDS011;13044;49.304;12.840;2024-03-23T09:40:34;10.07;;;5.57;;
25045;SDS011;13044;49.304;12.840;2024-03-23T09:43:07;5.40;;;4.78;;
25045;SDS011;13044;49.304;12.840;2024-03-23T09:45:35;6.40;;;4.50;;
25045;SDS011;13044;49.304;12.840;2024-03-23T09:48:05;7.38;;;5.07;;
25045;SDS011;13044;49.304;12.840;2024-03-23T09:50:41;5.90;;;4.45;;
25045;SDS011;13044;49.304;12.840;2024-03-23T09:53:12;5.97;;;4.57;;
25045;SDS011;13044;49.304;12.840;2024-03-23T09:55:39;5.22;;;4.50;;
25045;SDS011;13044;49.304;12.840;2024-03-23T09:58:07;5.57;;;4.57;;
25045;SDS011;13044;49.304;12.840;2024-03-23T10:00:34;6.70;;;5.30;;
25045;SDS011;13044;49.304;12.840;2024-03-23T10:03:01;8.13;;;4.82;;
25045;SDS011;13044;49.304;12.840;2024-03-23T10:05:28;8.32;;;5.68;;
25045;SDS011;13044;49.304;12.840;2024-03-23T10:07:54;7.75;;;5.05;;
25045;SDS011;13044;49.304;12.840;2024-03-23T10:10:20;8.45;;;5.30;;
25045;SDS011;13044;49.304;12.840;2024-03-23T10:12:47;6.47;;;4.80;;
25045;SDS011;13044;49.304;12.840;2024-03-23T10:15:18;6.32;;;4.95;;
25045;SDS011;13044;49.304;12.840;2024-03-23T10:17:49;7.78;;;4.82;;
25045;SDS011;13044;49.304;12.840;2024-03-23T10:20:19;6.90;;;4.82;;
25045;SDS011;13044;49.304;12.840;2024-03-23T10:22:49;5.35;;;4.55;;
25045;SDS011;13044;49.304;12.840;2024-03-23T10:25:16;7.38;;;5.68;;
25045;SDS011;13044;49.304;12.840;2024-03-23T10:27:43;6.38;;;4.32;;
25045;SDS011;13044;49.304;12.840;2024-03-23T10:30:10;7.18;;;4.60;;
25045;SDS011;13044;49.304;12.840;2024-03-23T10:32:38;7.28;;;4.32;;
25045;SDS011;13044;49.304;12.840;2024-03-23T10:35:17;6.20;;;3.55;;
25045;SDS011;13044;49.304;12.840;2024-03-23T10:37:46;4.03;;;3.28;;
25045;SDS011;13044;49.304;12.840;2024-03-23T10:40:16;3.53;;;3.00;;
25045;SDS011;13044;49.304;12.840;2024-03-23T10:42:46;3.05;;;2.72;;
25045;SDS011;13044;49.304;12.840;2024-03-23T10:45:12;2.60;;;2.35;;
25045;SDS011;13044;49.304;12.840;2024-03-23T10:47:38;3.78;;;2.90;;
25045;SDS011;13044;49.304;12.840;2024-03-23T10:50:04;2.85;;;2.47;;
25045;SDS011;13044;49.304;12.840;2024-03-23T10:52:33;5.10;;;2.63;;
25045;SDS011;13044;49.304;12.840;2024-03-23T10:55:00;3.38;;;2.63;;
25045;SDS011;13044;49.304;12.840;2024-03-23T10:57:34;2.92;;;2.63;;
25045;SDS011;13044;49.304;12.840;2024-03-23T11:02:30;3.28;;;2.60;;
25045;SDS011;13044;49.304;12.840;2024-03-23T11:04:56;3.05;;;2.60;;
25045;SDS011;13044;49.304;12.840;2024-03-23T11:07:29;2.90;;;2.40;;
25045;SDS011;13044;49.304;12.840;2024-03-23T11:09:59;2.50;;;2.30;;
25045;SDS011;13044;49.304;12.840;2024-03-23T11:12:26;2.53;;;2.20;;
25045;SDS011;13044;49.304;12.840;2024-03-23T11:14:54;2.97;;;2.55;;
25045;SDS011;13044;49.304;12.840;2024-03-23T11:17:31;2.35;;;2.10;;
25045;SDS011;13044;49.304;12.840;2024-03-23T11:19:58;1.73;;;1.63;;
25045;SDS011;13044;49.304;12.840;2024-03-23T11:25:16;2.53;;;2.00;;
25045;SDS011;13044;49.304;12.840;2024-03-23T11:27:46;2.42;;;2.22;;
25045;SDS011;13044;49.304;12.840;2024-03-23T11:30:15;2.65;;;2.20;;
25045;SDS011;13044;49.304;12.840;2024-03-23T11:32:43;1.70;;;1.60;;
25045;SDS011;13044;49.304;12.840;2024-03-23T11:35:11;2.08;;;1.85;;
25045;SDS011;13044;49.304;12.840;2024-03-23T11:43:10;4.55;;;2.15;;
25045;SDS011;13044;49.304;12.840;2024-03-23T11:45:48;1.90;;;1.50;;
25045;SDS011;13044;49.304;12.840;2024-03-23T11:48:20;1.73;;;1.48;;
25045;SDS011;13044;49.304;12.840;2024-03-23T11:50:49;3.17;;;2.50;;
25045;SDS011;13044;49.304;12.840;2024-03-23T11:53:17;4.28;;;3.60;;
25045;SDS011;13044;49.304;12.840;2024-03-23T11:55:51;2.00;;;1.80;;
25045;SDS011;13044;49.304;12.840;2024-03-23T11:58:22;1.52;;;1.42;;
25045;SDS011;13044;49.304;12.840;2024-03-23T12:01:10;2.78;;;2.05;;
25045;SDS011;13044;49.304;12.840;2024-03-23T12:03:35;3.47;;;2.30;;
25045;SDS011;13044;49.304;12.840;2024-03-23T12:06:02;1.95;;;1.48;;
25045;SDS011;13044;49.304;12.840;2024-03-23T12:08:31;1.15;;;1.05;;
25045;SDS011;13044;49.304;12.840;2024-03-23T12:13:37;5.50;;;1.27;;
25045;SDS011;13044;49.304;12.840;2024-03-23T12:16:10;3.25;;;1.58;;
25045;SDS011;13044;49.304;12.840;2024-03-23T12:18:46;1.20;;;0.77;;
25045;SDS011;13044;49.304;12.840;2024-03-23T12:21:14;1.40;;;1.02;;
25045;SDS011;13044;49.304;12.840;2024-03-23T12:23:42;0.70;;;0.70;;
25045;SDS011;13044;49.304;12.840;2024-03-23T12:26:10;1.13;;;1.00;;
25045;SDS011;13044;49.304;12.840;2024-03-23T12:28:37;2.00;;;1.50;;
25045;SDS011;13044;49.304;12.840;2024-03-23T12:31:04;2.30;;;1.60;;
25045;SDS011;13044;49.304;12.840;2024-03-23T12:33:33;1.25;;;1.15;;
25045;SDS011;13044;49.304;12.840;2024-03-23T12:35:59;1.27;;;1.08;;
25045;SDS011;13044;49.304;12.840;2024-03-23T12:38:25;2.30;;;1.30;;
25045;SDS011;13044;49.304;12.840;2024-03-23T12:40:51;5.72;;;2.92;;
25045;SDS011;13044;49.304;12.840;2024-03-23T12:43:17;6.20;;;3.38;;
25045;SDS011;13044;49.304;12.840;2024-03-23T12:45:47;4.95;;;3.10;;
25045;SDS011;13044;49.304;12.840;2024-03-23T12:48:14;2.75;;;1.95;;
25045;SDS011;13044;49.304;12.840;2024-03-23T12:50:40;3.70;;;1.98;;
25045;SDS011;13044;49.304;12.840;2024-03-23T12:53:06;3.38;;;2.33;;
25045;SDS011;13044;49.304;12.840;2024-03-23T12:55:34;3.88;;;2.38;;
25045;SDS011;13044;49.304;12.840;2024-03-23T12:58:01;2.08;;;1.65;;
25045;SDS011;13044;49.304;12.840;2024-03-23T13:00:27;4.30;;;1.77;;
25045;SDS011;13044;49.304;12.840;2024-03-23T13:02:53;4.70;;;2.05;;
25045;SDS011;13044;49.304;12.840;2024-03-23T13:05:19;4.35;;;2.47;;
25045;SDS011;13044;49.304;12.840;2024-03-23T13:07:45;8.32;;;2.28;;
25045;SDS011;13044;49.304;12.840;2024-03-23T13:10:11;1.60;;;1.48;;
25045;SDS011;13044;49.304;12.840;2024-03-23T13:12:36;2.88;;;1.80;;
25045;SDS011;13044;49.304;12.840;2024-03-23T13:15:02;2.55;;;1.67;;
25045;SDS011;13044;49.304;12.840;2024-03-23T13:17:29;5.05;;;2.47;;
25045;SDS011;13044;49.304;12.840;2024-03-23T13:19:55;4.75;;;2.90;;
25045;SDS011;13044;49.304;12.840;2024-03-23T13:22:21;4.40;;;2.30;;
25045;SDS011;13044;49.304;12.840;2024-03-23T13:24:48;6.07;;;2.63;;
25045;SDS011;13044;49.304;12.840;2024-03-23T13:27:14;3.67;;;1.92;;
25045;SDS011;13044;49.304;12.840;2024-03-23T13:29:40;4.20;;;2.35;;
25045;SDS011;13044;49.304;12.840;2024-03-23T13:32:06;3.70;;;2.50;;
25045;SDS011;13044;49.304;12.840;2024-03-23T13:34:34;3.33;;;2.25;;
25045;SDS011;13044;49.304;12.840;2024-03-23T13:37:00;5.65;;;2.88;;
25045;SDS011;13044;49.304;12.840;2024-03-23T13:39:27;4.88;;;2.83;;
25045;SDS011;13044;49.304;12.840;2024-03-23T13:41:53;5.25;;;2.90;;
25045;SDS011;13044;49.304;12.840;2024-03-23T13:44:22;7.22;;;3.63;;
25045;SDS011;13044;49.304;12.840;2024-03-23T13:46:48;4.20;;;2.90;;
25045;SDS011;13044;49.304;12.840;2024-03-23T13:49:27;5.15;;;2.92;;
25045;SDS011;13044;49.304;12.840;2024-03-23T13:51:55;5.32;;;2.90;;
25045;SDS011;13044;49.304;12.840;2024-03-23T13:54:23;4.28;;;2.50;;
25045;SDS011;13044;49.304;12.840;2024-03-23T13:56:53;4.90;;;2.58;;
25045;SDS011;13044;49.304;12.840;2024-03-23T14:03:17;3.47;;;2.20;;
25045;SDS011;13044;49.304;12.840;2024-03-23T14:05:46;3.45;;;2.20;;
25045;SDS011;13044;49.304;12.840;2024-03-23T14:08:15;2.70;;;1.70;;
25045;SDS011;13044;49.304;12.840;2024-03-23T14:10:41;4.60;;;2.25;;
25045;SDS011;13044;49.304;12.840;2024-03-23T14:13:08;5.30;;;2.50;;
25045;SDS011;13044;49.304;12.840;2024-03-23T14:15:34;6.00;;;2.38;;
25045;SDS011;13044;49.304;12.840;2024-03-23T14:18:05;4.50;;;1.75;;
25045;SDS011;13044;49.304;12.840;2024-03-23T14:20:31;3.33;;;2.10;;
25045;SDS011;13044;49.304;12.840;2024-03-23T14:22:57;4.70;;;1.85;;
25045;SDS011;13044;49.304;12.840;2024-03-23T14:25:23;4.07;;;2.10;;
25045;SDS011;13044;49.304;12.840;2024-03-23T14:27:52;6.18;;;2.53;;
25045;SDS011;13044;49.304;12.840;2024-03-23T14:30:18;8.82;;;2.78;;
25045;SDS011;13044;49.304;12.840;2024-03-23T14:32:44;3.72;;;2.67;;
25045;SDS011;13044;49.304;12.840;2024-03-23T14:35:10;6.78;;;2.55;;
25045;SDS011;13044;49.304;12.840;2024-03-23T14:37:37;3.15;;;1.75;;
25045;SDS011;13044;49.304;12.840;2024-03-23T14:40:03;6.95;;;2.50;;
25045;SDS011;13044;49.304;12.840;2024-03-23T14:42:30;3.80;;;2.05;;
25045;SDS011;13044;49.304;12.840;2024-03-23T14:44:59;5.63;;;2.60;;
25045;SDS011;13044;49.304;12.840;2024-03-23T14:47:25;3.65;;;2.40;;
25045;SDS011;13044;49.304;12.840;2024-03-23T14:49:51;4.45;;;2.40;;
25045;SDS011;13044;49.304;12.840;2024-03-23T14:52:17;4.53;;;2.05;;
25045;SDS011;13044;49.304;12.840;2024-03-23T14:54:46;3.67;;;1.92;;
25045;SDS011;13044;49.304;12.840;2024-03-23T14:57:12;3.60;;;2.17;;
25045;SDS011;13044;49.304;12.840;2024-03-23T14:59:38;3.60;;;2.30;;
25045;SDS011;13044;49.304;12.840;2024-03-23T15:02:08;4.75;;;2.42;;
25045;SDS011;13044;49.304;12.840;2024-03-23T15:04:34;7.65;;;2.30;;
25045;SDS011;13044;49.304;12.840;2024-03-23T15:07:01;4.10;;;1.98;;
25045;SDS011;13044;49.304;12.840;2024-03-23T15:09:27;5.63;;;2.08;;
25045;SDS011;13044;49.304;12.840;2024-03-23T15:11:53;6.00;;;2.17;;
25045;SDS011;13044;49.304;12.840;2024-03-23T15:14:23;6.30;;;2.42;;
25045;SDS011;13044;49.304;12.840;2024-03-23T15:16:49;5.88;;;2.42;;
25045;SDS011;13044;49.304;12.840;2024-03-23T15:19:16;7.10;;;2.20;;
25045;SDS011;13044;49.304;12.840;2024-03-23T15:21:42;5.20;;;2.72;;
25045;SDS011;13044;49.304;12.840;2024-03-23T15:24:09;5.57;;;2.40;;
25045;SDS011;13044;49.304;12.840;2024-03-23T15:26:36;5.75;;;2.60;;
25045;SDS011;13044;49.304;12.840;2024-03-23T15:29:03;6.25;;;2.83;;
25045;SDS011;13044;49.304;12.840;2024-03-23T15:31:36;3.88;;;2.22;;
25045;SDS011;13044;49.304;12.840;2024-03-23T15:34:02;8.77;;;4.38;;
25045;SDS011;13044;49.304;12.840;2024-03-23T15:36:29;5.22;;;2.35;;
25045;SDS011;13044;49.304;12.840;2024-03-23T15:38:55;7.50;;;3.30;;